sensor_id;sensor_type;location;lat;lon;timestamp;P1;durP1;ratioP1;P2;durP2;ratioP2
17852;SDS011;9052;53.494;14.376;2023-05-17T00:01:51;2.77;;;1.53;;
17852;SDS011;9052;53.494;14.376;2023-05-17T00:04:17;2.40;;;1.53;;
17852;SDS011;9052;53.494;14.376;2023-05-17T00:06:44;5.63;;;1.47;;
17852;SDS011;9052;53.494;14.376;2023-05-17T00:09:11;3.83;;;1.63;;
17852;SDS011;9052;53.494;14.376;2023-05-17T00:11:37;4.73;;;1.87;;
17852;SDS011;9052;53.494;14.376;2023-05-17T00:14:04;3.77;;;1.50;;
17852;SDS011;9052;53.494;14.376;2023-05-17T00:16:31;2.23;;;1.17;;
17852;SDS011;9052;53.494;14.376;2023-05-17T00:18:59;7.73;;;1.90;;
17852;SDS011;9052;53.494;14.376;2023-05-17T00:21:25;7.50;;;1.73;;
17852;SDS011;9052;53.494;14.376;2023-05-17T00:23:52;4.73;;;1.70;;
17852;SDS011;9052;53.494;14.376;2023-05-17T00:26:19;6.40;;;1.20;;
17852;SDS011;9052;53.494;14.376;2023-05-17T00:28:45;5.07;;;2.00;;
17852;SDS011;9052;53.494;14.376;2023-05-17T00:31:12;5.03;;;1.90;;
17852;SDS011;9052;53.494;14.376;2023-05-17T00:33:38;8.80;;;1.80;;
17852;SDS011;9052;53.494;14.376;2023-05-17T00:36:07;4.43;;;2.27;;
17852;SDS011;9052;53.494;14.376;2023-05-17T00:38:33;6.10;;;2.50;;
17852;SDS011;9052;53.494;14.376;2023-05-17T00:41:00;7.50;;;2.20;;
17852;SDS011;9052;53.494;14.376;2023-05-17T00:43:26;9.90;;;2.70;;
17852;SDS011;9052;53.494;14.376;2023-05-17T00:45:53;2.30;;;1.67;;
17852;SDS011;9052;53.494;14.376;2023-05-17T00:48:20;11.30;;;2.60;;
17852;SDS011;9052;53.494;14.376;2023-05-17T00:50:49;8.87;;;2.17;;
17852;SDS011;9052;53.494;14.376;2023-05-17T00:53:17;7.67;;;2.27;;
17852;SDS011;9052;53.494;14.376;2023-05-17T00:55:44;12.67;;;2.53;;
17852;SDS011;9052;53.494;14.376;2023-05-17T00:58:11;8.83;;;2.60;;
17852;SDS011;9052;53.494;14.376;2023-05-17T01:00:38;9.37;;;3.17;;
17852;SDS011;9052;53.494;14.376;2023-05-17T01:03:04;10.83;;;3.17;;
17852;SDS011;9052;53.494;14.376;2023-05-17T01:05:31;4.00;;;2.20;;
17852;SDS011;9052;53.494;14.376;2023-05-17T01:07:58;6.43;;;2.50;;
17852;SDS011;9052;53.494;14.376;2023-05-17T01:10:27;7.13;;;1.83;;
17852;SDS011;9052;53.494;14.376;2023-05-17T01:12:57;6.83;;;2.20;;
17852;SDS011;9052;53.494;14.376;2023-05-17T01:15:28;9.30;;;2.80;;
17852;SDS011;9052;53.494;14.376;2023-05-17T01:17:59;8.33;;;4.23;;
17852;SDS011;9052;53.494;14.376;2023-05-17T01:20:30;8.30;;;2.60;;
17852;SDS011;9052;53.494;14.376;2023-05-17T01:23:03;9.20;;;3.83;;
17852;SDS011;9052;53.494;14.376;2023-05-17T01:25:39;8.40;;;3.23;;
17852;SDS011;9052;53.494;14.376;2023-05-17T01:28:11;20.33;;;4.27;;
17852;SDS011;9052;53.494;14.376;2023-05-17T01:30:37;10.10;;;3.57;;
17852;SDS011;9052;53.494;14.376;2023-05-17T01:33:04;11.43;;;3.63;;
17852;SDS011;9052;53.494;14.376;2023-05-17T01:35:32;21.03;;;4.60;;
17852;SDS011;9052;53.494;14.376;2023-05-17T01:37:58;7.30;;;3.27;;
17852;SDS011;9052;53.494;14.376;2023-05-17T01:40:25;5.27;;;2.60;;
17852;SDS011;9052;53.494;14.376;2023-05-17T01:42:53;5.10;;;3.33;;
17852;SDS011;9052;53.494;14.376;2023-05-17T01:45:23;6.30;;;3.00;;
17852;SDS011;9052;53.494;14.376;2023-05-17T01:47:54;8.50;;;3.50;;
17852;SDS011;9052;53.494;14.376;2023-05-17T01:50:22;9.70;;;3.20;;
17852;SDS011;9052;53.494;14.376;2023-05-17T01:52:50;6.00;;;2.77;;
17852;SDS011;9052;53.494;14.376;2023-05-17T01:55:20;35.23;;;4.70;;
17852;SDS011;9052;53.494;14.376;2023-05-17T01:57:48;10.00;;;3.13;;
17852;SDS011;9052;53.494;14.376;2023-05-17T02:00:17;26.90;;;4.03;;
17852;SDS011;9052;53.494;14.376;2023-05-17T02:02:46;16.20;;;3.30;;
17852;SDS011;9052;53.494;14.376;2023-05-17T02:05:12;7.33;;;3.53;;
17852;SDS011;9052;53.494;14.376;2023-05-17T02:07:39;8.73;;;3.97;;
17852;SDS011;9052;53.494;14.376;2023-05-17T02:10:06;14.33;;;4.67;;
17852;SDS011;9052;53.494;14.376;2023-05-17T02:12:33;11.23;;;4.10;;
17852;SDS011;9052;53.494;14.376;2023-05-17T02:14:59;8.57;;;3.23;;
17852;SDS011;9052;53.494;14.376;2023-05-17T02:17:26;9.20;;;3.90;;
17852;SDS011;9052;53.494;14.376;2023-05-17T02:19:54;8.07;;;4.57;;
17852;SDS011;9052;53.494;14.376;2023-05-17T02:22:21;17.23;;;3.83;;
17852;SDS011;9052;53.494;14.376;2023-05-17T02:24:47;11.80;;;3.43;;
17852;SDS011;9052;53.494;14.376;2023-05-17T02:27:14;14.30;;;4.20;;
17852;SDS011;9052;53.494;14.376;2023-05-17T02:29:41;5.70;;;3.40;;
17852;SDS011;9052;53.494;14.376;2023-05-17T02:32:07;14.10;;;4.43;;
17852;SDS011;9052;53.494;14.376;2023-05-17T02:34:35;8.93;;;4.67;;
17852;SDS011;9052;53.494;14.376;2023-05-17T02:37:03;10.33;;;3.70;;
17852;SDS011;9052;53.494;14.376;2023-05-17T02:39:31;6.33;;;3.20;;
17852;SDS011;9052;53.494;14.376;2023-05-17T02:41:57;13.83;;;3.63;;
17852;SDS011;9052;53.494;14.376;2023-05-17T02:44:24;9.57;;;3.80;;
17852;SDS011;9052;53.494;14.376;2023-05-17T02:46:50;10.30;;;3.77;;
17852;SDS011;9052;53.494;14.376;2023-05-17T02:49:17;6.87;;;3.93;;
17852;SDS011;9052;53.494;14.376;2023-05-17T02:51:44;25.13;;;3.37;;
17852;SDS011;9052;53.494;14.376;2023-05-17T02:54:11;12.23;;;3.63;;
17852;SDS011;9052;53.494;14.376;2023-05-17T02:56:38;21.90;;;5.27;;
17852;SDS011;9052;53.494;14.376;2023-05-17T02:59:05;9.93;;;3.53;;
17852;SDS011;9052;53.494;14.376;2023-05-17T03:01:31;9.33;;;3.70;;
17852;SDS011;9052;53.494;14.376;2023-05-17T03:03:58;12.70;;;4.50;;
17852;SDS011;9052;53.494;14.376;2023-05-17T03:06:24;7.73;;;3.40;;
17852;SDS011;9052;53.494;14.376;2023-05-17T03:08:51;18.07;;;5.10;;
17852;SDS011;9052;53.494;14.376;2023-05-17T03:11:19;22.90;;;3.80;;
17852;SDS011;9052;53.494;14.376;2023-05-17T03:13:46;14.43;;;4.40;;
17852;SDS011;9052;53.494;14.376;2023-05-17T03:16:15;13.33;;;4.63;;
17852;SDS011;9052;53.494;14.376;2023-05-17T03:18:42;10.67;;;4.73;;
17852;SDS011;9052;53.494;14.376;2023-05-17T03:21:08;15.57;;;4.03;;
17852;SDS011;9052;53.494;14.376;2023-05-17T03:23:35;8.13;;;3.93;;
17852;SDS011;9052;53.494;14.376;2023-05-17T03:26:02;14.27;;;4.57;;
17852;SDS011;9052;53.494;14.376;2023-05-17T03:28:30;12.93;;;4.07;;
17852;SDS011;9052;53.494;14.376;2023-05-17T03:30:56;15.47;;;3.70;;
17852;SDS011;9052;53.494;14.376;2023-05-17T03:33:23;9.77;;;4.23;;
17852;SDS011;9052;53.494;14.376;2023-05-17T03:35:50;9.20;;;4.60;;
17852;SDS011;9052;53.494;14.376;2023-05-17T03:38:17;6.00;;;3.67;;
17852;SDS011;9052;53.494;14.376;2023-05-17T03:40:43;17.77;;;4.60;;
17852;SDS011;9052;53.494;14.376;2023-05-17T03:43:10;6.20;;;4.17;;
17852;SDS011;9052;53.494;14.376;2023-05-17T03:45:38;14.53;;;6.00;;
17852;SDS011;9052;53.494;14.376;2023-05-17T03:48:05;10.80;;;4.13;;
17852;SDS011;9052;53.494;14.376;2023-05-17T03:50:31;11.73;;;5.33;;
17852;SDS011;9052;53.494;14.376;2023-05-17T03:52:58;9.97;;;4.63;;
17852;SDS011;9052;53.494;14.376;2023-05-17T03:55:25;12.40;;;5.70;;
17852;SDS011;9052;53.494;14.376;2023-05-17T03:57:51;13.67;;;5.40;;
17852;SDS011;9052;53.494;14.376;2023-05-17T04:00:18;10.47;;;4.43;;
17852;SDS011;9052;53.494;14.376;2023-05-17T04:02:49;12.70;;;5.07;;
17852;SDS011;9052;53.494;14.376;2023-05-17T04:05:16;8.40;;;4.47;;
17852;SDS011;9052;53.494;14.376;2023-05-17T04:07:43;12.77;;;4.20;;
17852;SDS011;9052;53.494;14.376;2023-05-17T04:10:09;20.00;;;5.57;;
17852;SDS011;9052;53.494;14.376;2023-05-17T04:12:36;7.43;;;3.40;;
17852;SDS011;9052;53.494;14.376;2023-05-17T04:15:03;19.60;;;5.47;;
17852;SDS011;9052;53.494;14.376;2023-05-17T04:17:30;9.70;;;3.43;;
17852;SDS011;9052;53.494;14.376;2023-05-17T04:19:58;9.50;;;3.60;;
17852;SDS011;9052;53.494;14.376;2023-05-17T04:22:24;13.27;;;3.90;;
17852;SDS011;9052;53.494;14.376;2023-05-17T04:24:51;12.53;;;4.20;;
17852;SDS011;9052;53.494;14.376;2023-05-17T04:27:17;6.00;;;4.00;;
17852;SDS011;9052;53.494;14.376;2023-05-17T04:29:44;7.60;;;3.00;;
17852;SDS011;9052;53.494;14.376;2023-05-17T04:32:10;13.23;;;3.23;;
17852;SDS011;9052;53.494;14.376;2023-05-17T04:34:38;14.03;;;3.90;;
17852;SDS011;9052;53.494;14.376;2023-05-17T04:37:06;12.23;;;3.80;;
17852;SDS011;9052;53.494;14.376;2023-05-17T04:39:33;9.57;;;3.60;;
17852;SDS011;9052;53.494;14.376;2023-05-17T04:42:00;16.80;;;3.93;;
17852;SDS011;9052;53.494;14.376;2023-05-17T04:44:27;18.40;;;5.20;;
17852;SDS011;9052;53.494;14.376;2023-05-17T04:46:54;16.23;;;4.47;;
17852;SDS011;9052;53.494;14.376;2023-05-17T04:49:20;8.77;;;3.73;;
17852;SDS011;9052;53.494;14.376;2023-05-17T04:51:49;14.37;;;3.90;;
17852;SDS011;9052;53.494;14.376;2023-05-17T04:54:17;7.27;;;3.80;;
17852;SDS011;9052;53.494;14.376;2023-05-17T04:56:43;12.33;;;3.57;;
17852;SDS011;9052;53.494;14.376;2023-05-17T04:59:10;10.57;;;3.60;;
17852;SDS011;9052;53.494;14.376;2023-05-17T05:01:37;13.10;;;4.70;;
17852;SDS011;9052;53.494;14.376;2023-05-17T05:04:03;17.30;;;3.70;;
17852;SDS011;9052;53.494;14.376;2023-05-17T05:06:31;19.17;;;3.70;;
17852;SDS011;9052;53.494;14.376;2023-05-17T05:08:57;14.37;;;3.93;;
17852;SDS011;9052;53.494;14.376;2023-05-17T05:11:26;11.73;;;3.47;;
17852;SDS011;9052;53.494;14.376;2023-05-17T05:13:52;16.67;;;3.80;;
17852;SDS011;9052;53.494;14.376;2023-05-17T05:16:19;19.40;;;3.93;;
17852;SDS011;9052;53.494;14.376;2023-05-17T05:18:45;15.43;;;3.70;;
17852;SDS011;9052;53.494;14.376;2023-05-17T05:21:12;13.80;;;3.30;;
17852;SDS011;9052;53.494;14.376;2023-05-17T05:23:39;7.97;;;3.23;;
17852;SDS011;9052;53.494;14.376;2023-05-17T05:26:05;8.40;;;2.80;;
17852;SDS011;9052;53.494;14.376;2023-05-17T05:28:33;17.60;;;3.77;;
17852;SDS011;9052;53.494;14.376;2023-05-17T05:31:00;9.43;;;3.17;;
17852;SDS011;9052;53.494;14.376;2023-05-17T05:33:26;12.60;;;2.97;;
17852;SDS011;9052;53.494;14.376;2023-05-17T05:35:53;11.37;;;3.03;;
17852;SDS011;9052;53.494;14.376;2023-05-17T05:38:19;14.57;;;3.73;;
17852;SDS011;9052;53.494;14.376;2023-05-17T05:40:46;17.70;;;2.90;;
17852;SDS011;9052;53.494;14.376;2023-05-17T05:43:13;5.13;;;2.47;;
17852;SDS011;9052;53.494;14.376;2023-05-17T05:45:41;9.83;;;3.10;;
17852;SDS011;9052;53.494;14.376;2023-05-17T05:48:10;12.93;;;2.40;;
17852;SDS011;9052;53.494;14.376;2023-05-17T05:50:38;7.43;;;3.03;;
17852;SDS011;9052;53.494;14.376;2023-05-17T05:53:05;12.07;;;2.90;;
17852;SDS011;9052;53.494;14.376;2023-05-17T05:55:31;14.23;;;3.10;;
17852;SDS011;9052;53.494;14.376;2023-05-17T05:57:58;13.93;;;2.90;;
17852;SDS011;9052;53.494;14.376;2023-05-17T06:00:25;9.43;;;2.73;;
17852;SDS011;9052;53.494;14.376;2023-05-17T06:02:53;13.73;;;3.00;;
17852;SDS011;9052;53.494;14.376;2023-05-17T06:05:21;8.47;;;2.90;;
17852;SDS011;9052;53.494;14.376;2023-05-17T06:07:48;11.53;;;2.43;;
17852;SDS011;9052;53.494;14.376;2023-05-17T06:10:14;9.57;;;3.00;;
17852;SDS011;9052;53.494;14.376;2023-05-17T06:12:41;7.60;;;2.87;;
17852;SDS011;9052;53.494;14.376;2023-05-17T06:15:08;16.70;;;3.57;;
17852;SDS011;9052;53.494;14.376;2023-05-17T06:17:34;9.07;;;3.40;;
17852;SDS011;9052;53.494;14.376;2023-05-17T06:20:03;10.40;;;2.10;;
17852;SDS011;9052;53.494;14.376;2023-05-17T06:22:30;6.60;;;2.60;;
17852;SDS011;9052;53.494;14.376;2023-05-17T06:24:56;5.87;;;2.70;;
17852;SDS011;9052;53.494;14.376;2023-05-17T06:27:23;5.30;;;2.83;;
17852;SDS011;9052;53.494;14.376;2023-05-17T06:29:49;7.87;;;2.87;;
17852;SDS011;9052;53.494;14.376;2023-05-17T06:32:18;9.77;;;2.67;;
17852;SDS011;9052;53.494;14.376;2023-05-17T06:34:44;8.40;;;2.93;;
17852;SDS011;9052;53.494;14.376;2023-05-17T06:37:12;7.63;;;2.40;;
17852;SDS011;9052;53.494;14.376;2023-05-17T06:39:39;24.57;;;3.93;;
17852;SDS011;9052;53.494;14.376;2023-05-17T06:42:06;12.73;;;3.30;;
17852;SDS011;9052;53.494;14.376;2023-05-17T06:44:32;7.33;;;2.67;;
17852;SDS011;9052;53.494;14.376;2023-05-17T06:46:59;18.37;;;2.80;;
17852;SDS011;9052;53.494;14.376;2023-05-17T06:49:26;11.30;;;2.47;;
17852;SDS011;9052;53.494;14.376;2023-05-17T06:51:52;11.83;;;3.03;;
17852;SDS011;9052;53.494;14.376;2023-05-17T06:54:22;7.73;;;2.30;;
17852;SDS011;9052;53.494;14.376;2023-05-17T06:56:49;14.80;;;2.70;;
17852;SDS011;9052;53.494;14.376;2023-05-17T06:59:16;17.07;;;3.20;;
17852;SDS011;9052;53.494;14.376;2023-05-17T07:01:42;6.33;;;2.90;;
17852;SDS011;9052;53.494;14.376;2023-05-17T07:04:09;17.07;;;4.03;;
17852;SDS011;9052;53.494;14.376;2023-05-17T07:06:36;14.20;;;2.97;;
17852;SDS011;9052;53.494;14.376;2023-05-17T07:09:02;24.90;;;2.90;;
17852;SDS011;9052;53.494;14.376;2023-05-17T07:11:30;6.30;;;2.60;;
17852;SDS011;9052;53.494;14.376;2023-05-17T07:13:57;15.87;;;3.47;;
17852;SDS011;9052;53.494;14.376;2023-05-17T07:16:23;11.03;;;2.37;;
17852;SDS011;9052;53.494;14.376;2023-05-17T07:18:50;10.10;;;3.23;;
17852;SDS011;9052;53.494;14.376;2023-05-17T07:21:17;6.60;;;3.20;;
17852;SDS011;9052;53.494;14.376;2023-05-17T07:23:43;8.47;;;3.00;;
17852;SDS011;9052;53.494;14.376;2023-05-17T07:26:10;11.23;;;2.80;;
17852;SDS011;9052;53.494;14.376;2023-05-17T07:28:38;8.27;;;2.97;;
17852;SDS011;9052;53.494;14.376;2023-05-17T07:31:05;19.67;;;2.70;;
17852;SDS011;9052;53.494;14.376;2023-05-17T07:33:31;10.53;;;3.00;;
17852;SDS011;9052;53.494;14.376;2023-05-17T07:35:58;8.50;;;2.20;;
17852;SDS011;9052;53.494;14.376;2023-05-17T07:38:24;23.97;;;3.60;;
17852;SDS011;9052;53.494;14.376;2023-05-17T07:40:51;16.53;;;2.97;;
17852;SDS011;9052;53.494;14.376;2023-05-17T07:43:17;7.50;;;2.33;;
17852;SDS011;9052;53.494;14.376;2023-05-17T07:45:45;32.50;;;3.27;;
17852;SDS011;9052;53.494;14.376;2023-05-17T07:48:12;15.97;;;2.47;;
17852;SDS011;9052;53.494;14.376;2023-05-17T07:50:40;11.63;;;2.77;;
17852;SDS011;9052;53.494;14.376;2023-05-17T07:53:08;7.97;;;2.50;;
17852;SDS011;9052;53.494;14.376;2023-05-17T07:55:34;12.27;;;3.17;;
17852;SDS011;9052;53.494;14.376;2023-05-17T07:58:01;13.70;;;3.50;;
17852;SDS011;9052;53.494;14.376;2023-05-17T08:00:27;16.00;;;2.63;;
17852;SDS011;9052;53.494;14.376;2023-05-17T08:02:56;14.13;;;2.90;;
17852;SDS011;9052;53.494;14.376;2023-05-17T08:05:24;10.50;;;3.40;;
17852;SDS011;9052;53.494;14.376;2023-05-17T08:07:51;6.67;;;2.57;;
17852;SDS011;9052;53.494;14.376;2023-05-17T08:10:17;8.90;;;2.50;;
17852;SDS011;9052;53.494;14.376;2023-05-17T08:12:44;5.33;;;1.90;;
17852;SDS011;9052;53.494;14.376;2023-05-17T08:15:11;4.73;;;2.50;;
17852;SDS011;9052;53.494;14.376;2023-05-17T08:17:37;10.57;;;2.77;;
17852;SDS011;9052;53.494;14.376;2023-05-17T08:20:06;7.27;;;2.13;;
17852;SDS011;9052;53.494;14.376;2023-05-17T08:22:33;7.00;;;2.80;;
17852;SDS011;9052;53.494;14.376;2023-05-17T08:25:00;9.87;;;2.47;;
17852;SDS011;9052;53.494;14.376;2023-05-17T08:27:27;9.37;;;3.10;;
17852;SDS011;9052;53.494;14.376;2023-05-17T08:29:55;27.73;;;2.73;;
17852;SDS011;9052;53.494;14.376;2023-05-17T08:32:22;10.60;;;2.73;;
17852;SDS011;9052;53.494;14.376;2023-05-17T08:34:49;11.10;;;2.40;;
17852;SDS011;9052;53.494;14.376;2023-05-17T08:37:17;9.30;;;2.10;;
17852;SDS011;9052;53.494;14.376;2023-05-17T08:39:44;9.70;;;2.20;;
17852;SDS011;9052;53.494;14.376;2023-05-17T08:42:12;12.93;;;2.30;;
17852;SDS011;9052;53.494;14.376;2023-05-17T08:44:39;4.13;;;1.90;;
17852;SDS011;9052;53.494;14.376;2023-05-17T08:47:07;6.73;;;2.17;;
17852;SDS011;9052;53.494;14.376;2023-05-17T08:49:36;10.70;;;2.53;;
17852;SDS011;9052;53.494;14.376;2023-05-17T08:52:02;6.10;;;1.63;;
17852;SDS011;9052;53.494;14.376;2023-05-17T08:54:35;14.43;;;2.90;;
17852;SDS011;9052;53.494;14.376;2023-05-17T08:57:02;6.07;;;2.87;;
17852;SDS011;9052;53.494;14.376;2023-05-17T08:59:30;6.60;;;2.30;;
17852;SDS011;9052;53.494;14.376;2023-05-17T09:01:59;10.97;;;2.17;;
17852;SDS011;9052;53.494;14.376;2023-05-17T09:04:26;8.53;;;2.90;;
17852;SDS011;9052;53.494;14.376;2023-05-17T09:06:54;5.97;;;1.80;;
17852;SDS011;9052;53.494;14.376;2023-05-17T09:09:20;6.40;;;1.90;;
17852;SDS011;9052;53.494;14.376;2023-05-17T09:11:49;13.27;;;3.23;;
17852;SDS011;9052;53.494;14.376;2023-05-17T09:14:15;5.90;;;2.03;;
17852;SDS011;9052;53.494;14.376;2023-05-17T09:16:42;11.73;;;2.70;;
17852;SDS011;9052;53.494;14.376;2023-05-17T09:19:13;8.70;;;2.10;;
17852;SDS011;9052;53.494;14.376;2023-05-17T09:21:44;10.10;;;2.73;;
17852;SDS011;9052;53.494;14.376;2023-05-17T09:24:10;9.30;;;3.00;;
17852;SDS011;9052;53.494;14.376;2023-05-17T09:26:38;9.00;;;2.10;;
17852;SDS011;9052;53.494;14.376;2023-05-17T09:29:14;6.53;;;2.60;;
17852;SDS011;9052;53.494;14.376;2023-05-17T09:31:42;16.23;;;3.27;;
17852;SDS011;9052;53.494;14.376;2023-05-17T09:34:09;8.63;;;2.47;;
17852;SDS011;9052;53.494;14.376;2023-05-17T09:36:36;9.37;;;2.20;;
17852;SDS011;9052;53.494;14.376;2023-05-17T09:39:03;19.67;;;3.13;;
17852;SDS011;9052;53.494;14.376;2023-05-17T09:41:30;13.20;;;2.60;;
17852;SDS011;9052;53.494;14.376;2023-05-17T09:43:58;7.40;;;3.00;;
17852;SDS011;9052;53.494;14.376;2023-05-17T09:46:26;16.30;;;3.33;;
17852;SDS011;9052;53.494;14.376;2023-05-17T09:48:53;6.17;;;2.43;;
17852;SDS011;9052;53.494;14.376;2023-05-17T09:51:29;4.93;;;2.20;;
17852;SDS011;9052;53.494;14.376;2023-05-17T09:53:56;11.67;;;3.33;;
17852;SDS011;9052;53.494;14.376;2023-05-17T09:56:24;19.23;;;3.17;;
17852;SDS011;9052;53.494;14.376;2023-05-17T09:58:52;9.80;;;2.40;;
17852;SDS011;9052;53.494;14.376;2023-05-17T10:01:20;20.23;;;3.53;;
17852;SDS011;9052;53.494;14.376;2023-05-17T10:03:48;15.83;;;2.53;;
17852;SDS011;9052;53.494;14.376;2023-05-17T10:06:15;7.67;;;2.03;;
17852;SDS011;9052;53.494;14.376;2023-05-17T10:08:44;16.63;;;3.10;;
17852;SDS011;9052;53.494;14.376;2023-05-17T10:11:11;8.87;;;2.40;;
17852;SDS011;9052;53.494;14.376;2023-05-17T10:13:41;13.90;;;2.17;;
17852;SDS011;9052;53.494;14.376;2023-05-17T10:16:09;9.53;;;2.50;;
17852;SDS011;9052;53.494;14.376;2023-05-17T10:18:37;9.33;;;3.53;;
17852;SDS011;9052;53.494;14.376;2023-05-17T10:21:06;11.53;;;3.13;;
17852;SDS011;9052;53.494;14.376;2023-05-17T10:23:33;7.53;;;2.70;;
17852;SDS011;9052;53.494;14.376;2023-05-17T10:26:00;18.70;;;2.53;;
17852;SDS011;9052;53.494;14.376;2023-05-17T10:28:27;6.83;;;2.57;;
17852;SDS011;9052;53.494;14.376;2023-05-17T10:30:55;11.30;;;2.50;;
17852;SDS011;9052;53.494;14.376;2023-05-17T10:33:22;11.20;;;2.20;;
17852;SDS011;9052;53.494;14.376;2023-05-17T10:35:52;3.03;;;2.13;;
17852;SDS011;9052;53.494;14.376;2023-05-17T10:38:21;10.30;;;2.70;;
17852;SDS011;9052;53.494;14.376;2023-05-17T10:40:48;17.17;;;3.30;;
17852;SDS011;9052;53.494;14.376;2023-05-17T10:43:17;11.90;;;3.00;;
17852;SDS011;9052;53.494;14.376;2023-05-17T10:45:44;12.80;;;3.00;;
17852;SDS011;9052;53.494;14.376;2023-05-17T10:48:13;10.10;;;2.13;;
17852;SDS011;9052;53.494;14.376;2023-05-17T10:50:40;10.90;;;2.27;;
17852;SDS011;9052;53.494;14.376;2023-05-17T10:53:07;8.80;;;2.80;;
17852;SDS011;9052;53.494;14.376;2023-05-17T10:55:37;9.03;;;1.70;;
17852;SDS011;9052;53.494;14.376;2023-05-17T10:58:11;7.20;;;2.67;;
17852;SDS011;9052;53.494;14.376;2023-05-17T11:00:40;7.80;;;2.80;;
17852;SDS011;9052;53.494;14.376;2023-05-17T11:03:11;9.43;;;2.53;;
17852;SDS011;9052;53.494;14.376;2023-05-17T11:05:39;10.97;;;3.80;;
17852;SDS011;9052;53.494;14.376;2023-05-17T11:08:13;14.90;;;2.53;;
17852;SDS011;9052;53.494;14.376;2023-05-17T11:13:25;9.63;;;2.63;;
17852;SDS011;9052;53.494;14.376;2023-05-17T11:16:01;18.00;;;3.10;;
17852;SDS011;9052;53.494;14.376;2023-05-17T11:18:31;16.60;;;2.60;;
17852;SDS011;9052;53.494;14.376;2023-05-17T11:21:12;17.23;;;2.13;;
17852;SDS011;9052;53.494;14.376;2023-05-17T11:23:38;11.63;;;2.90;;
17852;SDS011;9052;53.494;14.376;2023-05-17T11:26:11;5.77;;;1.87;;
17852;SDS011;9052;53.494;14.376;2023-05-17T11:28:39;12.67;;;5.70;;
17852;SDS011;9052;53.494;14.376;2023-05-17T11:31:05;14.63;;;3.03;;
17852;SDS011;9052;53.494;14.376;2023-05-17T11:33:38;9.43;;;2.90;;
17852;SDS011;9052;53.494;14.376;2023-05-17T11:36:12;5.73;;;2.63;;
17852;SDS011;9052;53.494;14.376;2023-05-17T11:38:39;13.53;;;2.97;;
17852;SDS011;9052;53.494;14.376;2023-05-17T11:41:16;7.20;;;2.60;;
17852;SDS011;9052;53.494;14.376;2023-05-17T11:43:45;10.93;;;2.40;;
17852;SDS011;9052;53.494;14.376;2023-05-17T11:46:17;6.97;;;2.03;;
17852;SDS011;9052;53.494;14.376;2023-05-17T11:48:44;8.27;;;2.07;;
17852;SDS011;9052;53.494;14.376;2023-05-17T11:51:12;11.63;;;3.13;;
17852;SDS011;9052;53.494;14.376;2023-05-17T11:53:39;7.53;;;2.37;;
17852;SDS011;9052;53.494;14.376;2023-05-17T11:56:06;16.10;;;2.03;;
17852;SDS011;9052;53.494;14.376;2023-05-17T11:58:33;11.40;;;3.43;;
17852;SDS011;9052;53.494;14.376;2023-05-17T12:01:01;4.53;;;2.63;;
17852;SDS011;9052;53.494;14.376;2023-05-17T12:03:29;9.53;;;1.90;;
17852;SDS011;9052;53.494;14.376;2023-05-17T12:06:02;13.57;;;2.30;;
17852;SDS011;9052;53.494;14.376;2023-05-17T12:08:29;9.70;;;2.40;;
17852;SDS011;9052;53.494;14.376;2023-05-17T12:10:58;7.10;;;2.43;;
17852;SDS011;9052;53.494;14.376;2023-05-17T12:13:26;7.00;;;2.30;;
17852;SDS011;9052;53.494;14.376;2023-05-17T12:15:54;22.20;;;3.00;;
17852;SDS011;9052;53.494;14.376;2023-05-17T12:18:23;5.87;;;2.23;;
17852;SDS011;9052;53.494;14.376;2023-05-17T12:20:53;6.97;;;2.70;;
17852;SDS011;9052;53.494;14.376;2023-05-17T12:23:24;4.63;;;1.90;;
17852;SDS011;9052;53.494;14.376;2023-05-17T12:26:00;8.90;;;2.77;;
17852;SDS011;9052;53.494;14.376;2023-05-17T12:28:26;19.40;;;2.00;;
17852;SDS011;9052;53.494;14.376;2023-05-17T12:30:53;7.37;;;2.30;;
17852;SDS011;9052;53.494;14.376;2023-05-17T12:33:23;8.13;;;2.50;;
17852;SDS011;9052;53.494;14.376;2023-05-17T12:35:50;5.60;;;1.73;;
17852;SDS011;9052;53.494;14.376;2023-05-17T12:38:17;5.23;;;2.33;;
17852;SDS011;9052;53.494;14.376;2023-05-17T12:40:44;10.70;;;2.20;;
17852;SDS011;9052;53.494;14.376;2023-05-17T12:43:11;17.50;;;2.60;;
17852;SDS011;9052;53.494;14.376;2023-05-17T12:45:39;12.40;;;2.70;;
17852;SDS011;9052;53.494;14.376;2023-05-17T12:48:06;12.13;;;2.23;;
17852;SDS011;9052;53.494;14.376;2023-05-17T12:50:34;11.67;;;2.40;;
17852;SDS011;9052;53.494;14.376;2023-05-17T12:53:06;16.37;;;2.50;;
17852;SDS011;9052;53.494;14.376;2023-05-17T12:55:35;9.30;;;2.40;;
17852;SDS011;9052;53.494;14.376;2023-05-17T12:58:01;25.10;;;2.50;;
17852;SDS011;9052;53.494;14.376;2023-05-17T13:00:28;3.27;;;1.87;;
17852;SDS011;9052;53.494;14.376;2023-05-17T13:02:55;9.00;;;2.43;;
17852;SDS011;9052;53.494;14.376;2023-05-17T13:05:22;6.53;;;1.80;;
17852;SDS011;9052;53.494;14.376;2023-05-17T13:07:50;5.83;;;2.47;;
17852;SDS011;9052;53.494;14.376;2023-05-17T13:10:20;10.30;;;2.30;;
17852;SDS011;9052;53.494;14.376;2023-05-17T13:12:53;11.53;;;1.70;;
17852;SDS011;9052;53.494;14.376;2023-05-17T13:15:25;3.67;;;1.40;;
17852;SDS011;9052;53.494;14.376;2023-05-17T13:17:51;12.77;;;2.07;;
17852;SDS011;9052;53.494;14.376;2023-05-17T13:20:18;12.03;;;2.10;;
17852;SDS011;9052;53.494;14.376;2023-05-17T13:22:46;17.37;;;2.80;;
17852;SDS011;9052;53.494;14.376;2023-05-17T13:25:14;9.60;;;1.40;;
17852;SDS011;9052;53.494;14.376;2023-05-17T13:27:41;3.53;;;1.60;;
17852;SDS011;9052;53.494;14.376;2023-05-17T13:30:11;5.70;;;1.83;;
17852;SDS011;9052;53.494;14.376;2023-05-17T13:32:37;5.73;;;1.73;;
17852;SDS011;9052;53.494;14.376;2023-05-17T13:35:04;9.77;;;1.73;;
17852;SDS011;9052;53.494;14.376;2023-05-17T13:37:31;8.83;;;1.87;;
17852;SDS011;9052;53.494;14.376;2023-05-17T13:39:58;9.20;;;2.13;;
17852;SDS011;9052;53.494;14.376;2023-05-17T13:42:26;4.63;;;2.00;;
17852;SDS011;9052;53.494;14.376;2023-05-17T13:44:53;10.20;;;2.07;;
17852;SDS011;9052;53.494;14.376;2023-05-17T13:47:19;26.73;;;2.00;;
17852;SDS011;9052;53.494;14.376;2023-05-17T13:49:47;3.43;;;1.40;;
17852;SDS011;9052;53.494;14.376;2023-05-17T13:52:13;6.63;;;1.37;;
17852;SDS011;9052;53.494;14.376;2023-05-17T13:54:42;4.43;;;1.40;;
17852;SDS011;9052;53.494;14.376;2023-05-17T13:57:09;4.90;;;1.13;;
17852;SDS011;9052;53.494;14.376;2023-05-17T13:59:38;5.07;;;1.70;;
17852;SDS011;9052;53.494;14.376;2023-05-17T14:02:05;6.97;;;2.03;;
17852;SDS011;9052;53.494;14.376;2023-05-17T14:04:31;11.40;;;2.20;;
17852;SDS011;9052;53.494;14.376;2023-05-17T14:07:00;4.03;;;2.23;;
17852;SDS011;9052;53.494;14.376;2023-05-17T14:09:27;8.20;;;1.63;;
17852;SDS011;9052;53.494;14.376;2023-05-17T14:11:58;3.57;;;1.63;;
17852;SDS011;9052;53.494;14.376;2023-05-17T14:14:25;6.50;;;2.30;;
17852;SDS011;9052;53.494;14.376;2023-05-17T14:16:53;11.50;;;1.80;;
17852;SDS011;9052;53.494;14.376;2023-05-17T14:19:20;11.83;;;2.50;;
17852;SDS011;9052;53.494;14.376;2023-05-17T14:21:47;10.93;;;2.90;;
17852;SDS011;9052;53.494;14.376;2023-05-17T14:24:14;7.67;;;1.90;;
17852;SDS011;9052;53.494;14.376;2023-05-17T14:26:40;15.77;;;2.13;;
17852;SDS011;9052;53.494;14.376;2023-05-17T14:29:08;9.60;;;1.87;;
17852;SDS011;9052;53.494;14.376;2023-05-17T14:31:35;9.73;;;1.80;;
17852;SDS011;9052;53.494;14.376;2023-05-17T14:34:03;9.17;;;2.47;;
17852;SDS011;9052;53.494;14.376;2023-05-17T14:36:29;10.70;;;1.27;;
17852;SDS011;9052;53.494;14.376;2023-05-17T14:38:59;4.53;;;2.00;;
17852;SDS011;9052;53.494;14.376;2023-05-17T14:41:28;6.30;;;2.00;;
17852;SDS011;9052;53.494;14.376;2023-05-17T14:43:54;16.50;;;2.07;;
17852;SDS011;9052;53.494;14.376;2023-05-17T14:46:21;6.13;;;1.80;;